Time;durP1;ratioP1;P1;durP2;ratioP2;P2;SDS_P1;SDS_P2;PMS_P1;PMS_P2;Temp;Humidity;BMP_temperature;BMP_pressure;BME280_temperature;BME280_humidity;BME280_pressure;Samples;Min_cycle;Max_cycle;Signal;HPM_P1;HPM_P2
2024/02/04 00:01:19;;;;;;;32.90;13.40;;;5.90;89.20;;;;;;5082907;28;20215;-93
2024/02/04 00:03:44;;;;;;;24.93;10.30;;;5.90;89.30;;;;;;5089575;28;20214;-93
2024/02/04 00:06:10;;;;;;;21.93;10.90;;;5.80;89.40;;;;;;5086093;28;20174;-92
2024/02/04 00:08:36;;;;;;;25.20;9.47;;;5.90;89.40;;;;;;5082382;28;20170;-93
2024/02/04 00:11:04;;;;;;;23.70;10.90;;;5.90;89.30;;;;;;5083161;28;20272;-93
2024/02/04 00:13:30;;;;;;;20.20;10.70;;;5.80;89.50;;;;;;5085984;28;20205;-93
2024/02/04 00:15:58;;;;;;;12.93;9.83;;;5.80;89.40;;;;;;5081448;28;20171;-92
2024/02/04 00:18:24;;;;;;;14.70;9.77;;;5.90;89.20;;;;;;5087019;22;20223;-92
2024/02/04 00:20:49;;;;;;;23.77;14.10;;;5.80;89.20;;;;;;5078576;28;20591;-93
2024/02/04 00:23:15;;;;;;;27.83;12.13;;;5.90;89.20;;;;;;5077415;28;20201;-92
2024/02/04 00:25:41;;;;;;;24.20;11.50;;;5.90;88.90;;;;;;5078963;28;20173;-90
2024/02/04 00:28:07;;;;;;;23.17;10.97;;;5.90;89.20;;;;;;5100067;28;20194;-91
2024/02/04 00:30:32;;;;;;;19.03;11.00;;;5.90;89.00;;;;;;5077625;28;20171;-93
2024/02/04 00:33:02;;;;;;;25.17;11.40;;;5.80;89.20;;;;;;5074987;28;20167;-92
2024/02/04 00:35:28;;;;;;;20.23;10.13;;;5.80;89.20;;;;;;5077205;28;20181;-92
2024/02/04 00:37:54;;;;;;;18.43;11.50;;;5.80;89.30;;;;;;5094051;28;20279;-93
2024/02/04 00:40:19;;;;;;;14.83;9.60;;;5.80;89.20;;;;;;5076352;28;20223;-91
2024/02/04 00:42:45;;;;;;;21.77;10.83;;;5.80;89.30;;;;;;5076890;28;20178;-92
2024/02/04 00:45:11;;;;;;;18.20;10.57;;;5.80;89.10;;;;;;5080545;28;20174;-93
2024/02/04 00:47:36;;;;;;;24.90;10.23;;;5.90;89.00;;;;;;5080652;28;20286;-93
2024/02/04 00:50:02;;;;;;;20.70;18.37;;;5.90;89.00;;;;;;5081169;28;20650;-93
2024/02/04 00:52:27;;;;;;;25.97;19.33;;;5.90;89.10;;;;;;5080387;28;20175;-94
2024/02/04 00:54:53;;;;;;;34.53;19.90;;;5.90;89.00;;;;;;5102286;28;20201;-91
2024/02/04 00:57:19;;;;;;;25.37;20.17;;;6.00;88.90;;;;;;5083246;28;20251;-93
2024/02/04 00:59:44;;;;;;;28.77;19.60;;;6.00;89.00;;;;;;5083827;28;20315;-93
2024/02/04 01:02:10;;;;;;;22.57;19.57;;;6.00;88.80;;;;;;5082981;28;20181;-93
2024/02/04 01:04:35;;;;;;;26.27;20.40;;;6.00;88.90;;;;;;5083944;28;20175;-91
2024/02/04 01:07:01;;;;;;;26.80;18.10;;;6.00;88.90;;;;;;5084517;28;20254;-92
2024/02/04 01:09:27;;;;;;;22.40;18.53;;;6.00;88.80;;;;;;5085189;28;20170;-94
2024/02/04 01:11:53;;;;;;;22.23;19.57;;;6.20;88.40;;;;;;5083770;28;20179;-92
2024/02/04 01:14:19;;;;;;;19.90;18.37;;;6.20;88.30;;;;;;5084294;28;20569;-93
2024/02/04 01:16:44;;;;;;;27.80;19.93;;;6.20;88.20;;;;;;5084752;28;20178;-93
2024/02/04 01:19:10;;;;;;;25.83;18.20;;;6.30;88.10;;;;;;5084741;28;20242;-92
2024/02/04 01:21:35;;;;;;;21.57;19.27;;;6.20;88.10;;;;;;5085364;28;20177;-93
2024/02/04 01:24:01;;;;;;;22.23;19.13;;;6.20;88.10;;;;;;5084500;28;20224;-93
2024/02/04 01:26:26;;;;;;;21.67;19.67;;;6.30;88.00;;;;;;5083818;28;20205;-93
2024/02/04 01:28:52;;;;;;;22.07;19.03;;;6.30;88.00;;;;;;5101195;28;20198;-92
2024/02/04 01:31:17;;;;;;;19.37;17.93;;;6.30;87.90;;;;;;5083396;28;20179;-93
2024/02/04 01:33:43;;;;;;;21.93;19.67;;;6.30;87.90;;;;;;5084632;28;20259;-93
2024/02/04 01:36:08;;;;;;;22.10;11.43;;;6.30;87.80;;;;;;5083547;28;20265;-93
2024/02/04 01:38:34;;;;;;;19.03;11.13;;;6.30;88.00;;;;;;5083152;28;20296;-93
2024/02/04 01:40:59;;;;;;;17.87;11.27;;;6.30;87.80;;;;;;5082092;28;20174;-92
2024/02/04 01:43:26;;;;;;;18.90;11.50;;;6.40;87.70;;;;;;5083584;28;20224;-92
2024/02/04 01:45:54;;;;;;;12.03;10.20;;;6.50;87.50;;;;;;5082945;28;20266;-93
2024/02/04 01:48:21;;;;;;;22.30;10.77;;;6.40;87.70;;;;;;5082029;28;20194;-92
2024/02/04 01:50:48;;;;;;;21.57;11.03;;;6.40;87.70;;;;;;5083103;28;20178;-94
2024/02/04 01:53:16;;;;;;;15.57;11.40;;;6.40;87.70;;;;;;5083617;28;20194;-94
2024/02/04 01:55:42;;;;;;;16.20;11.00;;;6.50;87.70;;;;;;5082662;28;20659;-92
2024/02/04 01:58:08;;;;;;;16.97;11.17;;;6.50;87.80;;;;;;5082304;28;20222;-93
2024/02/04 02:00:33;;;;;;;23.50;11.97;;;6.50;87.70;;;;;;5083609;28;20208;-92
2024/02/04 02:02:59;;;;;;;15.50;11.43;;;6.50;87.60;;;;;;5082878;28;20198;-93
2024/02/04 02:05:26;;;;;;;17.17;11.27;;;6.60;87.50;;;;;;5082449;28;20175;-93
2024/02/04 02:07:52;;;;;;;18.67;11.90;;;6.50;87.50;;;;;;5083460;28;20202;-92
2024/02/04 02:10:19;;;;;;;19.93;11.57;;;6.50;87.70;;;;;;5083680;28;20306;-93
2024/02/04 02:12:58;;;;;;;21.90;12.20;;;6.50;87.60;;;;;;5084670;28;20193;-93
2024/02/04 02:15:30;;;;;;;18.23;11.80;;;6.50;87.50;;;;;;5084547;28;20189;-92
2024/02/04 02:18:12;;;;;;;24.03;12.83;;;6.40;87.50;;;;;;5083304;28;20301;-92
2024/02/04 02:21:17;;;;;;;14.93;11.80;;;6.40;87.50;;;;;;5083540;28;20583;-93
2024/02/04 02:24:00;;;;;;;20.00;11.80;;;6.40;87.50;;;;;;5084269;28;20198;-92
2024/02/04 02:26:26;;;;;;;24.40;11.90;;;6.40;87.40;;;;;;5083484;28;20163;-93
2024/02/04 02:28:51;;;;;;;17.17;12.63;;;6.40;87.40;;;;;;5084258;28;20222;-93
2024/02/04 02:31:17;;;;;;;18.87;12.67;;;6.30;87.40;;;;;;5084005;28;20174;-93
2024/02/04 02:33:42;;;;;;;22.17;13.33;;;6.30;87.50;;;;;;5083354;28;20310;-93
2024/02/04 02:36:17;;;;;;;15.00;12.53;;;6.20;87.70;;;;;;5082477;28;20266;-92
2024/02/04 02:39:10;;;;;;;20.40;12.70;;;6.10;87.80;;;;;;5082411;28;20666;-93
2024/02/04 02:41:37;;;;;;;17.00;12.23;;;6.20;87.80;;;;;;5071670;28;20178;-92
2024/02/04 02:44:05;;;;;;;19.43;12.40;;;6.20;87.50;;;;;;5081350;28;20178;-93
2024/02/04 02:46:31;;;;;;;16.30;12.50;;;6.10;87.60;;;;;;5100793;28;20201;-93
2024/02/04 02:48:57;;;;;;;21.80;12.50;;;6.10;87.90;;;;;;5081183;28;20195;-94
2024/02/04 02:51:23;;;;;;;15.23;11.90;;;6.10;87.80;;;;;;5081509;28;20214;-93
2024/02/04 02:53:48;;;;;;;15.53;11.60;;;6.10;87.70;;;;;;5081542;28;20218;-93
2024/02/04 02:56:14;;;;;;;19.23;11.90;;;6.10;87.60;;;;;;5082546;28;20178;-92
2024/02/04 02:58:39;;;;;;;17.97;11.77;;;6.10;87.90;;;;;;5082603;28;20226;-92
2024/02/04 03:01:05;;;;;;;22.23;11.73;;;6.10;87.90;;;;;;5100813;28;20175;-92
2024/02/04 03:03:30;;;;;;;13.33;11.27;;;6.00;88.20;;;;;;5081914;28;20190;-93
2024/02/04 03:05:56;;;;;;;20.07;11.80;;;6.00;88.20;;;;;;5080969;28;20237;-93
2024/02/04 03:08:21;;;;;;;22.43;11.97;;;6.10;88.20;;;;;;5080739;28;20202;-93
2024/02/04 03:10:47;;;;;;;25.30;20.17;;;6.00;88.30;;;;;;5080620;28;20228;-93
2024/02/04 03:13:13;;;;;;;24.27;20.77;;;6.00;88.20;;;;;;5081462;28;20183;-92
2024/02/04 03:15:40;;;;;;;23.00;20.57;;;6.00;88.30;;;;;;5079517;28;20305;-94
2024/02/04 03:18:06;;;;;;;23.00;21.00;;;6.00;88.40;;;;;;5080042;28;20211;-92
2024/02/04 03:20:31;;;;;;;19.83;18.30;;;5.90;88.50;;;;;;5081132;28;20239;-92
2024/02/04 03:22:57;;;;;;;19.63;17.73;;;5.90;88.70;;;;;;5080536;28;20174;-93
2024/02/04 03:25:26;;;;;;;21.47;19.23;;;5.90;88.60;;;;;;5081317;28;20185;-93
2024/02/04 03:27:52;;;;;;;21.77;19.07;;;5.90;88.60;;;;;;5079794;28;20545;-93
2024/02/04 03:30:18;;;;;;;22.10;19.60;;;5.80;88.80;;;;;;5079465;28;20178;-93
2024/02/04 03:32:43;;;;;;;30.60;19.60;;;6.00;88.60;;;;;;5079413;28;20189;-92
2024/02/04 03:35:09;;;;;;;23.47;19.80;;;6.00;88.40;;;;;;5079343;28;20285;-92
2024/02/04 03:37:34;;;;;;;21.77;19.40;;;5.90;88.70;;;;;;5079652;28;20701;-93
2024/02/04 03:40:00;;;;;;;22.40;20.00;;;5.80;88.90;;;;;;5080772;28;20175;-93
2024/02/04 03:42:26;;;;;;;20.63;18.60;;;5.90;89.00;;;;;;5080958;28;20247;-92
2024/02/04 03:44:51;;;;;;;21.13;19.07;;;5.90;88.70;;;;;;5080222;28;20187;-92
2024/02/04 03:47:17;;;;;;;21.37;18.90;;;5.90;88.90;;;;;;5080162;28;20199;-92
2024/02/04 03:49:42;;;;;;;20.13;17.97;;;5.80;89.20;;;;;;5079863;28;20238;-93
2024/02/04 03:52:08;;;;;;;21.03;18.17;;;5.80;89.40;;;;;;5079198;28;20246;-93
2024/02/04 03:54:33;;;;;;;20.27;17.50;;;5.90;89.20;;;;;;5079821;28;20203;-93
2024/02/04 03:56:59;;;;;;;25.23;17.70;;;5.80;89.20;;;;;;5079118;28;20171;-92
2024/02/04 03:59:24;;;;;;;20.33;18.27;;;5.90;89.40;;;;;;5079360;28;20179;-93
2024/02/04 04:01:50;;;;;;;15.17;10.00;;;5.90;89.30;;;;;;5080127;28;20634;-95
2024/02/04 04:04:16;;;;;;;18.27;10.57;;;5.80;89.50;;;;;;5078815;28;20178;-94
2024/02/04 04:06:46;;;;;;;13.53;9.00;;;5.80;89.60;;;;;;5080243;28;20186;-92
2024/02/04 04:09:11;;;;;;;15.53;10.20;;;5.70;89.80;;;;;;5079990;28;20204;-93
2024/02/04 04:11:37;;;;;;;18.57;8.70;;;5.80;89.70;;;;;;5079453;28;20174;-93
2024/02/04 04:14:03;;;;;;;17.30;9.10;;;5.70;90.00;;;;;;5080614;28;20685;-93
2024/02/04 04:16:28;;;;;;;16.43;9.40;;;5.70;90.00;;;;;;5079818;28;20227;-93
2024/02/04 04:18:54;;;;;;;21.43;9.60;;;5.60;90.10;;;;;;5079179;28;20203;-93
2024/02/04 04:21:20;;;;;;;17.60;9.10;;;5.60;90.40;;;;;;5079761;28;20175;-92
2024/02/04 04:23:45;;;;;;;13.07;9.53;;;5.60;90.40;;;;;;5079095;28;20183;-93
2024/02/04 04:26:11;;;;;;;16.47;8.73;;;5.60;90.40;;;;;;5081088;28;20183;-92
2024/02/04 04:28:36;;;;;;;17.70;9.80;;;5.50;90.60;;;;;;5082000;28;20220;-92
2024/02/04 04:31:02;;;;;;;20.40;8.87;;;5.50;90.70;;;;;;5085146;28;20188;-93
2024/02/04 04:33:28;;;;;;;14.07;9.10;;;5.60;90.60;;;;;;5084750;28;20205;-92
2024/02/04 04:35:53;;;;;;;16.40;9.10;;;5.60;90.60;;;;;;5083250;28;20205;-93
2024/02/04 04:38:19;;;;;;;11.33;8.10;;;5.60;90.60;;;;;;5082492;28;20195;-92
2024/02/04 04:40:44;;;;;;;16.67;8.63;;;5.60;90.70;;;;;;5084132;28;20681;-91
2024/02/04 04:43:10;;;;;;;12.50;10.53;;;5.50;90.80;;;;;;5085607;28;20179;-93
2024/02/04 04:45:35;;;;;;;14.77;9.27;;;5.60;90.70;;;;;;5082953;28;20593;-93
2024/02/04 04:48:01;;;;;;;15.13;9.10;;;5.60;90.60;;;;;;5084353;28;20195;-92
2024/02/04 04:50:27;;;;;;;13.07;8.37;;;5.60;90.80;;;;;;5084397;28;20170;-93
2024/02/04 04:52:52;;;;;;;15.50;9.90;;;5.50;90.90;;;;;;5084368;28;20661;-93
2024/02/04 04:55:19;;;;;;;18.73;9.40;;;5.50;91.00;;;;;;5084030;28;20233;-93
2024/02/04 04:57:44;;;;;;;14.37;9.70;;;5.50;91.00;;;;;;5084522;28;20281;-93
2024/02/04 05:00:12;;;;;;;12.23;9.13;;;5.60;90.90;;;;;;5083691;28;20194;-93
2024/02/04 05:02:37;;;;;;;10.73;9.27;;;5.60;90.90;;;;;;5085483;28;20248;-93
2024/02/04 05:05:03;;;;;;;14.93;10.07;;;5.50;90.90;;;;;;5083745;28;20186;-94
2024/02/04 05:07:29;;;;;;;22.37;9.10;;;5.50;91.00;;;;;;5083803;28;20228;-92
2024/02/04 05:09:54;;;;;;;20.13;8.77;;;5.50;91.10;;;;;;5083396;28;20198;-92
2024/02/04 05:12:20;;;;;;;16.13;9.13;;;5.60;90.90;;;;;;5083490;28;20183;-92
2024/02/04 05:14:45;;;;;;;13.40;8.67;;;5.50;90.90;;;;;;5082765;28;20209;-92
2024/02/04 05:17:11;;;;;;;15.57;8.90;;;5.50;91.00;;;;;;5083085;28;20213;-93
2024/02/04 05:19:36;;;;;;;18.40;9.37;;;5.50;90.90;;;;;;5084771;28;20170;-92
2024/02/04 05:22:02;;;;;;;19.70;9.10;;;5.50;91.00;;;;;;5084171;28;20175;-93
2024/02/04 05:24:28;;;;;;;14.30;8.80;;;5.50;91.00;;;;;;5083874;28;20179;-93
2024/02/04 05:26:54;;;;;;;30.13;9.27;;;5.60;90.90;;;;;;5082001;28;20179;-91
2024/02/04 05:29:19;;;;;;;25.40;9.23;;;5.60;90.80;;;;;;5082885;28;20185;-92
2024/02/04 05:31:45;;;;;;;19.83;15.33;;;5.50;90.80;;;;;;5081550;28;20557;-92
2024/02/04 05:34:11;;;;;;;27.30;17.53;;;5.50;91.00;;;;;;5084054;28;20205;-92
2024/02/04 05:36:36;;;;;;;17.43;14.83;;;5.50;91.00;;;;;;5083148;28;20178;-92
2024/02/04 05:39:12;;;;;;;25.77;15.90;;;5.50;90.90;;;;;;5082009;28;20205;-92
2024/02/04 05:41:38;;;;;;;22.93;16.67;;;5.50;90.90;;;;;;5081963;28;20173;-92
2024/02/04 05:44:04;;;;;;;22.20;17.10;;;5.50;91.00;;;;;;5082401;28;20183;-94
2024/02/04 05:46:29;;;;;;;18.20;14.63;;;5.70;90.70;;;;;;5084500;28;20231;-92
2024/02/04 05:48:55;;;;;;;22.97;14.83;;;5.70;90.50;;;;;;5083231;28;20199;-94
2024/02/04 05:51:21;;;;;;;17.50;15.70;;;5.60;90.60;;;;;;5083955;28;20255;-93
2024/02/04 05:53:47;;;;;;;26.50;17.73;;;5.60;90.80;;;;;;5084028;28;20636;-92
2024/02/04 05:56:13;;;;;;;24.73;15.70;;;5.60;90.70;;;;;;5083051;28;20195;-93
2024/02/04 05:58:39;;;;;;;21.83;15.93;;;5.70;90.50;;;;;;5082029;28;20707;-93
2024/02/04 06:01:04;;;;;;;27.13;17.13;;;5.70;90.30;;;;;;5083573;28;20208;-94
2024/02/04 06:03:30;;;;;;;22.57;16.27;;;5.70;90.40;;;;;;5083493;28;20182;-92
2024/02/04 06:05:55;;;;;;;26.47;17.77;;;5.80;90.30;;;;;;5082980;28;20194;-92
2024/02/04 06:08:21;;;;;;;19.60;15.20;;;5.80;90.20;;;;;;5083703;28;20229;-93
2024/02/04 06:10:46;;;;;;;25.23;17.33;;;5.80;90.00;;;;;;5081397;28;20182;-92
2024/02/04 06:13:12;;;;;;;21.40;16.90;;;5.80;90.20;;;;;;5083291;28;20185;-93
2024/02/04 06:15:37;;;;;;;23.00;15.87;;;5.70;90.10;;;;;;5082406;28;20265;-92
2024/02/04 06:18:03;;;;;;;26.23;22.50;;;5.80;90.00;;;;;;5082485;28;20562;-93
2024/02/04 06:20:29;;;;;;;30.00;17.77;;;5.80;89.90;;;;;;5077602;28;20174;-93
2024/02/04 06:22:54;;;;;;;20.50;15.63;;;5.80;90.00;;;;;;5077434;28;20166;-91
2024/02/04 06:25:20;;;;;;;19.47;15.03;;;5.80;89.90;;;;;;5077051;28;20182;-91
2024/02/04 06:27:45;;;;;;;23.70;15.73;;;5.80;89.90;;;;;;5076799;28;20209;-91
2024/02/04 06:30:11;;;;;;;18.00;15.33;;;5.80;89.90;;;;;;5076905;28;20175;-91
2024/02/04 06:32:37;;;;;;;19.53;15.73;;;5.80;89.90;;;;;;5077077;28;20197;-91
2024/02/04 06:35:03;;;;;;;22.97;16.17;;;5.80;89.90;;;;;;5077731;28;20662;-92
2024/02/04 06:37:29;;;;;;;24.93;15.30;;;5.80;89.90;;;;;;5077687;28;20202;-91
2024/02/04 06:39:54;;;;;;;26.03;9.37;;;5.80;89.80;;;;;;5095022;28;20661;-91
2024/02/04 06:42:20;;;;;;;12.93;8.33;;;5.80;89.70;;;;;;5076799;28;20171;-90
2024/02/04 06:44:45;;;;;;;27.07;10.10;;;5.80;89.70;;;;;;5076702;28;20179;-91
2024/02/04 06:47:14;;;;;;;21.10;9.93;;;5.80;89.70;;;;;;5076617;28;20730;-91
2024/02/04 06:49:46;;;;;;;14.97;8.57;;;5.90;89.70;;;;;;5076446;28;20174;-91
2024/02/04 06:52:11;;;;;;;25.93;8.77;;;5.90;89.50;;;;;;5076229;28;20643;-92
2024/02/04 06:54:37;;;;;;;31.97;10.50;;;5.90;89.50;;;;;;5076508;28;20210;-91
2024/02/04 06:57:03;;;;;;;15.90;8.93;;;5.80;89.70;;;;;;5076470;28;20222;-92
2024/02/04 06:59:28;;;;;;;21.43;8.53;;;5.80;89.70;;;;;;5076555;28;20179;-91
2024/02/04 07:01:54;;;;;;;29.50;11.10;;;5.90;89.50;;;;;;5076449;28;20266;-91
2024/02/04 07:04:21;;;;;;;18.83;8.93;;;5.80;89.80;;;;;;5076265;28;20182;-91
2024/02/04 07:06:47;;;;;;;16.33;9.03;;;5.80;89.80;;;;;;5076156;28;20227;-93
2024/02/04 07:09:13;;;;;;;18.57;9.07;;;5.80;89.80;;;;;;5076454;28;20178;-91
2024/02/04 07:11:38;;;;;;;22.97;10.23;;;5.80;89.80;;;;;;5076957;28;20200;-92
2024/02/04 07:14:05;;;;;;;19.20;10.00;;;5.80;90.00;;;;;;5076457;28;20205;-91
2024/02/04 07:16:31;;;;;;;17.20;9.73;;;5.80;90.00;;;;;;5085062;28;20174;-90
2024/02/04 07:18:57;;;;;;;17.30;8.57;;;5.80;90.10;;;;;;5076777;28;20632;-89
2024/02/04 07:21:22;;;;;;;13.60;8.03;;;5.80;90.10;;;;;;5077411;28;20231;-91
2024/02/04 07:23:48;;;;;;;19.43;8.73;;;5.80;90.20;;;;;;5076269;28;20273;-90
2024/02/04 07:26:13;;;;;;;17.23;8.53;;;5.80;90.30;;;;;;5075778;28;20178;-92
2024/02/04 07:28:39;;;;;;;10.63;6.80;;;5.80;90.10;;;;;;5076290;28;20221;-90
2024/02/04 07:31:05;;;;;;;14.97;8.10;;;5.90;90.00;;;;;;5075758;28;20183;-92
2024/02/04 07:33:30;;;;;;;15.03;8.30;;;5.80;90.20;;;;;;5075996;28;20198;-89
2024/02/04 07:35:56;;;;;;;14.10;8.83;;;5.80;90.30;;;;;;5076792;28;20181;-90
2024/02/04 07:38:21;;;;;;;18.70;8.83;;;5.90;90.10;;;;;;5075776;28;20201;-91
2024/02/04 07:40:47;;;;;;;14.10;9.10;;;5.90;90.00;;;;;;5075744;28;20213;-91
2024/02/04 07:43:13;;;;;;;18.63;8.80;;;5.90;90.10;;;;;;5075466;28;20186;-90
2024/02/04 07:45:38;;;;;;;22.30;9.43;;;5.90;90.10;;;;;;5075586;28;20227;-91
2024/02/04 07:48:04;;;;;;;24.60;9.10;;;5.80;90.20;;;;;;5246567;22;20706;-92
2024/02/04 07:50:30;;;;;;;14.03;8.90;;;5.90;90.20;;;;;;5072588;28;20179;-92
2024/02/04 07:52:55;;;;;;;22.33;10.03;;;5.90;90.10;;;;;;5072601;28;20264;-92
2024/02/04 07:55:21;;;;;;;12.43;7.97;;;5.90;90.20;;;;;;5072578;28;20226;-91
2024/02/04 07:57:46;;;;;;;20.67;9.13;;;6.00;90.00;;;;;;5072008;28;20206;-92
2024/02/04 08:00:21;;;;;;;19.90;9.43;;;5.90;90.10;;;;;;5071345;28;20417;-92
2024/02/04 08:02:47;;;;;;;18.13;9.40;;;5.90;90.10;;;;;;5071990;28;20536;-91
2024/02/04 08:05:13;;;;;;;25.37;9.37;;;5.90;90.30;;;;;;5072447;28;20178;-92
2024/02/04 08:07:38;;;;;;;18.23;10.10;;;6.00;90.20;;;;;;5072052;28;20198;-92
2024/02/04 08:10:05;;;;;;;11.60;8.10;;;5.90;90.20;;;;;;5072043;28;20639;-90
2024/02/04 08:12:30;;;;;;;17.43;8.77;;;6.00;90.20;;;;;;5071854;28;20171;-91
2024/02/04 08:14:56;;;;;;;20.27;9.30;;;6.00;90.10;;;;;;5072422;28;20202;-92
2024/02/04 08:17:21;;;;;;;12.87;7.70;;;6.00;90.10;;;;;;5071861;28;20187;-91
2024/02/04 08:19:47;;;;;;;13.87;8.33;;;6.00;90.20;;;;;;5071980;28;20171;-92
2024/02/04 08:22:13;;;;;;;25.17;8.40;;;6.10;90.00;;;;;;5071902;28;20643;-92
2024/02/04 08:24:38;;;;;;;18.57;8.80;;;6.10;90.00;;;;;;5071851;28;20274;-91
2024/02/04 08:27:04;;;;;;;23.23;9.77;;;6.10;89.90;;;;;;5071807;28;20196;-91
2024/02/04 08:29:30;;;;;;;18.60;9.10;;;6.10;89.90;;;;;;5071645;28;20176;-91
2024/02/04 08:31:55;;;;;;;24.27;9.63;;;6.20;90.00;;;;;;5072045;28;20198;-91
2024/02/04 08:34:23;;;;;;;13.47;8.80;;;6.20;89.90;;;;;;5071647;28;20206;-91
2024/02/04 08:36:49;;;;;;;22.77;9.60;;;6.20;89.80;;;;;;5071513;28;20176;-91
2024/02/04 08:39:15;;;;;;;22.00;9.67;;;6.30;89.70;;;;;;5071761;28;20548;-92
2024/02/04 08:41:41;;;;;;;21.10;9.97;;;6.30;89.60;;;;;;5071651;28;20195;-91
2024/02/04 08:44:07;;;;;;;28.03;9.87;;;6.30;89.70;;;;;;5071646;28;20179;-91
2024/02/04 08:46:32;;;;;;;26.23;16.03;;;6.30;89.60;;;;;;5071753;28;20186;-92
2024/02/04 08:48:58;;;;;;;24.50;15.20;;;6.30;89.60;;;;;;5071405;28;20215;-92
2024/02/04 08:51:23;;;;;;;18.27;16.20;;;6.40;89.50;;;;;;5071889;28;20300;-90
2024/02/04 08:53:49;;;;;;;19.73;15.17;;;6.40;89.30;;;;;;5071492;28;20286;-91
2024/02/04 08:56:16;;;;;;;18.73;15.13;;;6.40;89.30;;;;;;5071888;28;20199;-90
2024/02/04 08:58:41;;;;;;;25.00;15.00;;;6.40;89.00;;;;;;5071960;28;20195;-91
2024/02/04 09:01:07;;;;;;;21.60;14.77;;;6.50;89.10;;;;;;5072089;28;20262;-91
2024/02/04 09:03:33;;;;;;;31.00;17.03;;;6.50;88.80;;;;;;5071507;28;20685;-91
2024/02/04 09:05:59;;;;;;;22.03;16.33;;;6.60;88.70;;;;;;5071455;28;20179;-91
2024/02/04 09:08:25;;;;;;;28.97;16.13;;;6.60;88.70;;;;;;5071513;28;20205;-91
2024/02/04 09:10:51;;;;;;;25.20;17.07;;;6.60;88.80;;;;;;5072802;28;20179;-91
2024/02/04 09:13:16;;;;;;;17.83;16.23;;;6.70;88.30;;;;;;5072787;28;20175;-91
2024/02/04 09:15:42;;;;;;;23.60;17.03;;;6.60;88.50;;;;;;5074832;28;20221;-91
2024/02/04 09:18:07;;;;;;;21.13;16.17;;;6.60;88.50;;;;;;5075021;28;20234;-91
2024/02/04 09:20:33;;;;;;;17.33;15.47;;;6.70;88.60;;;;;;5075297;28;20175;-91
2024/02/04 09:22:58;;;;;;;36.57;17.97;;;6.70;88.50;;;;;;5074767;28;20176;-91
2024/02/04 09:25:27;;;;;;;26.53;16.13;;;6.70;88.20;;;;;;5075250;28;20184;-89
2024/02/04 09:27:53;;;;;;;22.73;11.40;;;6.80;87.90;;;;;;5074800;28;20199;-91
2024/02/04 09:30:18;;;;;;;20.20;11.47;;;6.80;87.90;;;;;;5074680;28;20182;-90
2024/02/04 09:32:43;;;;;;;21.30;11.33;;;6.80;88.00;;;;;;5074630;28;20176;-90
2024/02/04 09:35:09;;;;;;;17.50;11.60;;;6.90;87.90;;;;;;5074947;28;20675;-90
2024/02/04 09:37:35;;;;;;;;;;;6.90;87.70;;;;;;5075920;28;19905;-90
2024/02/04 09:40:00;;;;;;;;;;;6.90;87.70;;;;;;5075323;28;19905;-91
2024/02/04 09:42:27;;;;;;;;;;;6.90;87.70;;;;;;5075130;28;19905;-91
2024/02/04 09:44:53;;;;;;;;;;;6.90;87.70;;;;;;5075009;28;20334;-91
2024/02/04 09:47:20;;;;;;;;;;;6.90;87.40;;;;;;5075193;28;19904;-90
2024/02/04 09:49:46;;;;;;;;;;;7.00;87.30;;;;;;5075114;28;19955;-90
2024/02/04 09:52:12;;;;;;;;;;;7.00;87.30;;;;;;5075221;28;19904;-91
2024/02/04 09:54:45;;;;;;;;;;;7.00;87.30;;;;;;5074884;28;20364;-90
2024/02/04 09:57:11;;;;;;;;;;;7.00;87.40;;;;;;5074932;28;19912;-90
2024/02/04 09:59:36;;;;;;;;;;;7.10;87.00;;;;;;5075078;28;19904;-89
2024/02/04 10:02:03;;;;;;;;;;;7.10;86.60;;;;;;5077064;28;19904;-89
2024/02/04 10:04:28;;;;;;;;;;;7.10;86.70;;;;;;5075451;28;19905;-89
2024/02/04 10:06:54;;;;;;;;;;;7.20;86.70;;;;;;5075828;28;19954;-90
2024/02/04 10:09:20;;;;;;;;;;;7.20;86.90;;;;;;5075436;28;20007;-91
2024/02/04 10:11:45;;;;;;;;;;;7.20;86.80;;;;;;5074591;28;19947;-91
2024/02/04 10:14:11;;;;;;;;;;;7.20;86.80;;;;;;5074529;28;19916;-90
2024/02/04 10:16:37;;;;;;;;;;;7.20;86.80;;;;;;5074230;28;19915;-90
2024/02/04 10:19:02;;;;;;;;;;;7.20;87.00;;;;;;5074724;28;19912;-90
2024/02/04 10:21:28;;;;;;;;;;;7.30;86.80;;;;;;5074693;28;19911;-89
2024/02/04 10:23:55;;;;;;;;;;;7.30;86.70;;;;;;5074497;28;19905;-90
2024/02/04 10:26:21;;;;;;;;;;;7.30;86.70;;;;;;5073895;28;19904;-90
2024/02/04 10:28:47;;;;;;;;;;;7.30;86.40;;;;;;5074011;28;20309;-91
2024/02/04 10:31:13;;;;;;;;;;;7.50;86.20;;;;;;5075110;28;19905;-89
2024/02/04 10:33:38;;;;;;;;;;;7.50;85.80;;;;;;5074642;28;19909;-92
2024/02/04 10:36:04;;;;;;;;;;;7.50;86.10;;;;;;5076448;28;19919;-90
2024/02/04 10:38:30;;;;;;;;;;;7.50;86.00;;;;;;5076281;28;20011;-90
2024/02/04 10:40:55;;;;;;;;;;;7.50;86.10;;;;;;5075973;28;19954;-90
2024/02/04 10:43:21;;;;;;;;;;;7.50;86.10;;;;;;5075363;28;20014;-91
2024/02/04 10:45:47;;;;;;;23.63;18.93;;;7.50;86.10;;;;;;5074762;28;20025;-90
2024/02/04 10:48:19;;;;;;;26.63;18.67;;;7.50;85.90;;;;;;5074422;28;20246;-90
2024/02/04 10:50:46;;;;;;;26.67;19.60;;;7.50;85.70;;;;;;5075699;28;20175;-91
2024/02/04 10:53:14;;;;;;;21.40;18.50;;;7.60;86.00;;;;;;5074068;28;20180;-90
2024/02/04 10:55:42;;;;;;;30.27;21.30;;;7.60;85.80;;;;;;5074617;28;20211;-91
2024/02/04 10:58:08;;;;;;;32.23;22.50;;;7.60;86.00;;;;;;5074530;28;20207;-91
2024/02/04 11:00:35;;;;;;;22.17;20.03;;;7.60;86.10;;;;;;5074299;28;20174;-91
2024/02/04 11:03:02;;;;;;;30.00;22.23;;;7.60;85.70;;;;;;5076660;28;20191;-91
2024/02/04 11:05:28;;;;;;;31.20;22.37;;;7.70;85.70;;;;;;5078189;28;20233;-93
2024/02/04 11:07:55;;;;;;;26.50;21.13;;;7.70;85.80;;;;;;5074553;28;20741;-91
2024/02/04 11:10:22;;;;;;;32.50;21.63;;;7.70;85.80;;;;;;5076248;28;20209;-91
2024/02/04 11:12:49;;;;;;;26.33;20.90;;;7.70;85.70;;;;;;5073404;28;20183;-91
2024/02/04 11:15:16;;;;;;;35.63;21.60;;;7.70;85.80;;;;;;5074139;28;20693;-92
2024/02/04 11:18:24;;;;;;;28.13;21.93;;;7.70;85.50;;;;;;5074363;28;20215;-91
2024/02/04 11:21:21;;;;;;;31.90;21.83;;;7.80;85.80;;;;;;5073582;28;20178;-91
2024/02/04 11:24:15;;;;;;;27.57;20.20;;;7.80;85.60;;;;;;5075830;28;20260;-91
2024/02/04 11:26:42;;;;;;;32.00;21.73;;;7.80;85.70;;;;;;5075287;28;20168;-90
2024/02/04 11:29:09;;;;;;;28.73;20.93;;;7.80;85.40;;;;;;5073634;28;20183;-90
2024/02/04 11:31:42;;;;;;;24.23;21.50;;;7.80;85.40;;;;;;5075267;28;20205;-91
2024/02/04 11:34:08;;;;;;;30.90;24.93;;;7.90;85.30;;;;;;5075607;28;20202;-92
2024/02/04 11:36:43;;;;;;;33.43;22.53;;;7.90;85.10;;;;;;5074562;28;20233;-91
2024/02/04 11:39:22;;;;;;;26.83;22.37;;;7.90;85.10;;;;;;5078619;28;20178;-91
2024/02/04 11:41:48;;;;;;;33.50;21.33;;;7.90;85.40;;;;;;5077063;28;20167;-91
2024/02/04 11:44:24;;;;;;;34.47;21.87;;;7.90;85.10;;;;;;5075065;28;20184;-91
2024/02/04 11:46:50;;;;;;;28.10;23.07;;;8.00;84.80;;;;;;5073809;28;20214;-91
2024/02/04 11:49:19;;;;;;;25.07;21.57;;;8.00;84.70;;;;;;5074216;28;20218;-91
2024/02/04 11:51:51;;;;;;;25.40;16.73;;;8.00;84.90;;;;;;5073891;28;20186;-90
2024/02/04 11:54:19;;;;;;;26.77;17.03;;;8.00;84.70;;;;;;5073214;28;20198;-91
2024/02/04 11:56:45;;;;;;;26.13;18.57;;;8.10;84.50;;;;;;5075265;28;20175;-90
2024/02/04 11:59:12;;;;;;;33.33;19.03;;;8.10;84.70;;;;;;5073837;28;20553;-90
2024/02/04 12:01:38;;;;;;;24.13;19.13;;;8.20;84.20;;;;;;5074564;28;20263;-90
2024/02/04 12:04:15;;;;;;;24.60;18.53;;;8.20;84.70;;;;;;5073157;28;20198;-90
2024/02/04 12:06:41;;;;;;;27.40;17.93;;;8.20;84.40;;;;;;5074187;28;20186;-91
2024/02/04 12:09:09;;;;;;;27.83;19.10;;;8.20;84.00;;;;;;5073619;28;20179;-91
2024/02/04 12:11:36;;;;;;;24.13;18.50;;;8.20;84.20;;;;;;5075522;28;20185;-90
2024/02/04 12:14:07;;;;;;;27.77;17.40;;;8.20;83.60;;;;;;5074814;28;20201;-89
2024/02/04 12:16:35;;;;;;;27.07;17.70;;;8.20;84.00;;;;;;5074810;28;20164;-88
2024/02/04 12:19:03;;;;;;;25.50;17.70;;;8.20;83.80;;;;;;5074782;28;20270;-91
2024/02/04 12:21:28;;;;;;;19.50;16.67;;;8.20;83.20;;;;;;5073368;28;20178;-90
2024/02/04 12:23:55;;;;;;;25.33;17.30;;;8.30;83.70;;;;;;5072579;28;20176;-90
2024/02/04 12:26:20;;;;;;;28.03;17.83;;;8.30;83.80;;;;;;5073303;28;20175;-90
2024/02/04 12:28:46;;;;;;;25.00;17.17;;;8.30;83.80;;;;;;5072638;28;20204;-90
2024/02/04 12:31:24;;;;;;;29.50;18.40;;;8.30;83.60;;;;;;5072744;28;20197;-91
2024/02/04 12:33:54;;;;;;;30.60;18.00;;;8.30;83.90;;;;;;5074203;28;20195;-90
2024/02/04 12:36:20;;;;;;;23.97;17.40;;;8.30;83.40;;;;;;5073224;28;20171;-91
2024/02/04 12:38:53;;;;;;;26.33;16.70;;;8.30;83.40;;;;;;5073648;28;20769;-91
2024/02/04 12:41:19;;;;;;;29.57;18.33;;;8.30;83.20;;;;;;5073036;28;20180;-90
2024/02/04 12:43:55;;;;;;;27.73;17.10;;;8.30;83.40;;;;;;5072806;28;20241;-91
2024/02/04 12:46:22;;;;;;;23.60;17.30;;;8.30;83.60;;;;;;5073096;28;20262;-90